Time;durP1;ratioP1;P1;durP2;ratioP2;P2;SDS_P1;SDS_P2;PMS_P1;PMS_P2;Temp;Humidity;BMP_temperature;BMP_pressure;BME280_temperature;BME280_humidity;BME280_pressure;Samples;Min_cycle;Max_cycle;Signal;HPM_P1;HPM_P2
2023/04/08 00:00:19;;;;;;;13.43;9.60;;;6.30;99.90;;;;;;5095185;28;20169;-69
2023/04/08 00:02:45;;;;;;;11.60;8.27;;;6.30;99.90;;;;;;5095525;28;20204;-68
2023/04/08 00:05:11;;;;;;;15.63;9.97;;;6.30;99.90;;;;;;5095748;28;20199;-69
2023/04/08 00:07:36;;;;;;;14.67;9.37;;;6.20;99.90;;;;;;5095664;28;20425;-68
2023/04/08 00:10:03;;;;;;;13.83;9.57;;;6.20;99.90;;;;;;5095280;28;20197;-68
2023/04/08 00:12:28;;;;;;;15.57;10.80;;;6.20;99.90;;;;;;5094631;28;20181;-69
2023/04/08 00:14:54;;;;;;;9.40;8.17;;;6.20;99.90;;;;;;5095525;28;20985;-69
2023/04/08 00:17:20;;;;;;;13.07;9.10;;;6.20;99.90;;;;;;5077313;28;20245;-69
2023/04/08 00:19:46;;;;;;;14.10;10.10;;;6.20;99.90;;;;;;5095320;28;20412;-66
2023/04/08 00:22:11;;;;;;;10.53;8.47;;;6.20;99.90;;;;;;5094449;28;20305;-68
2023/04/08 00:24:39;;;;;;;13.93;9.90;;;6.30;99.90;;;;;;5095343;28;20662;-69
2023/04/08 00:27:05;;;;;;;13.60;10.20;;;6.30;99.90;;;;;;5095455;28;20170;-68
2023/04/08 00:29:31;;;;;;;18.73;11.07;;;6.30;99.90;;;;;;5094916;28;20918;-68
2023/04/08 00:31:56;;;;;;;15.30;11.33;;;6.30;99.90;;;;;;5093889;28;20430;-68
2023/04/08 00:34:23;;;;;;;16.03;10.87;;;6.30;99.90;;;;;;5095093;28;20203;-68
2023/04/08 00:36:48;;;;;;;15.17;9.40;;;6.30;99.90;;;;;;5095020;28;20646;-68
2023/04/08 00:39:14;;;;;;;16.10;9.93;;;6.30;99.90;;;;;;5095072;28;20435;-68
2023/04/08 00:41:40;;;;;;;15.20;10.10;;;6.30;99.90;;;;;;5094328;28;20193;-69
2023/04/08 00:44:06;;;;;;;13.30;9.77;;;6.40;99.90;;;;;;5076951;28;20172;-69
2023/04/08 00:46:38;;;;;;;12.43;9.60;;;6.40;99.90;;;;;;5093928;28;20711;-69
2023/04/08 00:49:06;;;;;;;20.03;10.80;;;6.40;99.90;;;;;;5094377;28;20240;-68
2023/04/08 00:51:32;;;;;;;14.83;10.40;;;6.40;99.90;;;;;;5093978;28;20455;-68
2023/04/08 00:53:59;;;;;;;13.37;9.83;;;6.40;99.90;;;;;;5094713;28;20888;-68
2023/04/08 00:56:26;;;;;;;21.37;10.47;;;6.40;99.90;;;;;;5093428;28;20922;-68
2023/04/08 00:58:54;;;;;;;14.07;12.23;;;6.40;99.90;;;;;;5094614;28;20414;-68
2023/04/08 01:01:53;;;;;;;12.67;10.47;;;6.30;99.90;;;;;;5093707;28;20426;-69
2023/04/08 01:04:39;;;;;;;17.60;11.10;;;6.30;99.90;;;;;;5094509;28;20916;-68
2023/04/08 01:07:12;;;;;;;14.40;10.90;;;6.30;99.90;;;;;;5094051;28;20408;-68
2023/04/08 01:09:44;;;;;;;17.57;11.47;;;6.40;99.90;;;;;;5094341;28;21031;-68
2023/04/08 01:12:15;;;;;;;17.20;12.60;;;6.30;99.90;;;;;;5093626;28;20446;-69
2023/04/08 01:14:44;;;;;;;13.50;11.47;;;6.30;99.90;;;;;;5094207;28;20402;-67
2023/04/08 01:17:10;;;;;;;11.77;10.50;;;6.30;99.90;;;;;;5094352;28;20407;-68
2023/04/08 01:19:38;;;;;;;13.00;10.10;;;6.30;99.90;;;;;;5094206;28;20403;-68
2023/04/08 01:22:33;;;;;;;16.33;12.37;;;6.30;99.90;;;;;;5093444;28;20423;-68
2023/04/08 01:25:05;;;;;;;20.40;10.97;;;6.30;99.90;;;;;;5094089;28;20476;-69
2023/04/08 01:27:32;;;;;;;16.20;12.73;;;6.30;99.90;;;;;;5093403;28;20403;-68
2023/04/08 01:30:00;;;;;;;19.97;10.77;;;6.30;99.90;;;;;;5093770;28;20486;-68
2023/04/08 01:32:26;;;;;;;13.87;11.07;;;6.30;99.90;;;;;;5093523;28;20419;-68
2023/04/08 01:34:53;;;;;;;15.83;11.03;;;6.30;99.90;;;;;;5093832;28;20769;-69
2023/04/08 01:37:20;;;;;;;19.57;11.40;;;6.30;99.90;;;;;;5093891;28;20400;-69
2023/04/08 01:39:48;;;;;;;19.20;11.03;;;6.30;99.90;;;;;;5093956;28;20490;-68
2023/04/08 01:42:15;;;;;;;13.90;10.40;;;6.40;99.90;;;;;;5093215;28;20431;-68
2023/04/08 01:44:42;;;;;;;14.87;10.47;;;6.30;99.90;;;;;;5093536;28;20832;-68
2023/04/08 01:47:10;;;;;;;17.27;10.73;;;6.30;99.90;;;;;;5093349;28;20884;-66
2023/04/08 01:49:37;;;;;;;19.20;12.00;;;6.30;99.90;;;;;;5093851;28;20462;-68
2023/04/08 01:52:05;;;;;;;15.77;10.70;;;6.30;99.90;;;;;;5092973;28;20773;-68
2023/04/08 01:54:31;;;;;;;21.63;12.00;;;6.20;99.90;;;;;;5075529;28;20502;-69
2023/04/08 01:56:58;;;;;;;14.60;9.70;;;6.20;99.90;;;;;;5093373;28;20503;-68
2023/04/08 01:59:28;;;;;;;19.47;13.00;;;6.20;99.90;;;;;;5093581;28;20426;-69
2023/04/08 02:01:55;;;;;;;15.63;11.70;;;6.20;99.90;;;;;;5092868;28;20439;-68
2023/04/08 02:04:20;;;;;;;24.23;13.87;;;6.20;99.90;;;;;;5093117;28;20445;-68
2023/04/08 02:06:46;;;;;;;15.67;11.60;;;6.20;99.90;;;;;;5093338;28;20406;-69
2023/04/08 02:09:12;;;;;;;19.03;11.87;;;6.20;99.90;;;;;;5093430;28;20173;-69
2023/04/08 02:11:38;;;;;;;19.40;13.67;;;6.20;99.90;;;;;;5092554;28;20455;-69
2023/04/08 02:14:03;;;;;;;20.63;12.43;;;6.30;99.90;;;;;;5093371;28;20279;-68
2023/04/08 02:16:39;;;;;;;18.97;10.90;;;6.30;99.90;;;;;;5093347;28;20166;-68
2023/04/08 02:19:15;;;;;;;15.83;11.60;;;6.30;99.90;;;;;;5075091;28;20450;-69
2023/04/08 02:21:49;;;;;;;18.10;12.30;;;6.30;99.90;;;;;;5092607;28;20419;-69
2023/04/08 02:24:16;;;;;;;16.67;11.07;;;6.40;99.90;;;;;;5074337;28;20804;-68
2023/04/08 02:26:43;;;;;;;14.67;11.07;;;6.30;99.90;;;;;;5093058;28;20874;-68
2023/04/08 02:29:14;;;;;;;20.50;13.03;;;6.40;99.90;;;;;;5093040;28;20407;-69
2023/04/08 02:31:44;;;;;;;21.70;13.40;;;6.30;99.90;;;;;;5092366;28;20985;-68
2023/04/08 02:34:11;;;;;;;21.50;12.77;;;6.40;99.90;;;;;;5093023;28;20391;-69
2023/04/08 02:36:39;;;;;;;19.20;12.30;;;6.40;99.90;;;;;;5074978;28;20777;-69
2023/04/08 02:39:05;;;;;;;19.10;13.63;;;6.40;99.90;;;;;;5074913;28;20930;-66
2023/04/08 02:41:31;;;;;;;16.23;12.83;;;6.30;99.90;;;;;;5091571;28;20418;-68
2023/04/08 02:43:57;;;;;;;16.27;12.57;;;6.20;99.90;;;;;;5093089;28;20172;-68
2023/04/08 02:46:23;;;;;;;22.60;15.43;;;6.20;99.90;;;;;;5093115;28;20177;-68
2023/04/08 02:48:49;;;;;;;19.13;12.13;;;6.20;99.90;;;;;;5092965;28;20953;-69
2023/04/08 02:51:15;;;;;;;18.40;12.27;;;6.20;99.90;;;;;;5092148;28;20279;-68
2023/04/08 02:53:40;;;;;;;28.13;14.60;;;6.30;99.90;;;;;;5092942;28;20974;-70
2023/04/08 02:56:10;;;;;;;16.63;12.70;;;6.30;99.90;;;;;;5092874;28;20851;-70
2023/04/08 02:58:35;;;;;;;21.77;11.93;;;6.30;99.90;;;;;;5092245;28;20177;-70
2023/04/08 03:01:01;;;;;;;18.17;10.30;;;6.30;99.90;;;;;;5074379;28;20422;-69
2023/04/08 03:03:28;;;;;;;18.20;13.57;;;6.30;1.00;;;;;;5092680;28;20276;-69
2023/04/08 03:05:55;;;;;;;18.00;12.80;;;6.20;99.90;;;;;;5074923;28;20200;-70
2023/04/08 03:08:21;;;;;;;22.20;14.90;;;6.20;99.90;;;;;;5092794;28;20494;-70
2023/04/08 03:10:48;;;;;;;19.37;11.97;;;6.10;99.90;;;;;;5095554;28;20531;-67
2023/04/08 03:13:14;;;;;;;22.00;14.00;;;6.10;99.90;;;;;;5078402;28;20192;-69
2023/04/08 03:15:40;;;;;;;20.60;14.20;;;6.00;99.90;;;;;;5078631;28;20806;-68
2023/04/08 03:18:06;;;;;;;17.87;10.57;;;6.00;99.90;;;;;;5095914;28;20410;-67
2023/04/08 03:20:32;;;;;;;20.03;13.23;;;6.00;99.90;;;;;;5095895;28;20411;-69
2023/04/08 03:22:58;;;;;;;20.80;13.53;;;5.90;99.90;;;;;;5096312;28;20441;-68
2023/04/08 03:25:23;;;;;;;21.03;13.93;;;5.90;99.90;;;;;;5096429;28;20204;-67
2023/04/08 03:27:49;;;;;;;26.33;13.03;;;5.90;99.90;;;;;;5078229;28;20561;-67
2023/04/08 03:30:15;;;;;;;21.53;13.40;;;5.90;99.90;;;;;;5095770;28;20192;-67
2023/04/08 03:32:41;;;;;;;26.33;14.03;;;5.90;1.00;;;;;;5096222;28;20934;-67
2023/04/08 03:35:07;;;;;;;18.13;13.80;;;5.80;1.00;;;;;;5077804;28;20184;-66
2023/04/08 03:37:33;;;;;;;20.33;13.40;;;5.90;1.00;;;;;;5078183;28;20180;-69
2023/04/08 03:39:59;;;;;;;23.20;14.00;;;5.90;1.00;;;;;;5095893;28;20390;-66
2023/04/08 03:42:25;;;;;;;20.20;12.17;;;5.80;1.00;;;;;;5095648;28;20186;-70
2023/04/08 03:44:50;;;;;;;17.00;12.73;;;5.90;1.00;;;;;;5078040;28;20437;-68
2023/04/08 03:47:16;;;;;;;21.10;13.53;;;5.90;1.00;;;;;;5096006;28;20168;-67
2023/04/08 03:49:42;;;;;;;21.57;12.03;;;5.80;1.00;;;;;;5095987;28;20239;-66
2023/04/08 03:52:07;;;;;;;19.70;12.97;;;5.80;1.00;;;;;;5094976;28;20515;-68
2023/04/08 03:54:33;;;;;;;23.60;13.70;;;5.80;1.00;;;;;;5095504;28;20202;-69
2023/04/08 03:56:59;;;;;;;25.30;13.33;;;5.80;1.00;;;;;;5095871;28;20175;-69
2023/04/08 03:59:24;;;;;;;22.10;13.87;;;5.80;1.00;;;;;;5095809;28;20603;-69
2023/04/08 04:01:51;;;;;;;19.33;13.70;;;5.80;1.00;;;;;;5094973;28;20201;-66
2023/04/08 04:04:16;;;;;;;22.10;12.50;;;5.80;1.00;;;;;;5095735;28;20161;-67
2023/04/08 04:06:42;;;;;;;21.77;14.13;;;5.90;1.00;;;;;;5095646;28;20406;-66
2023/04/08 04:09:08;;;;;;;17.47;12.87;;;5.90;1.00;;;;;;5095756;28;20176;-68
2023/04/08 04:11:34;;;;;;;20.43;12.53;;;5.80;1.00;;;;;;5094166;28;20670;-66
2023/04/08 04:14:00;;;;;;;20.20;11.57;;;5.80;1.00;;;;;;5095439;28;20191;-67
2023/04/08 04:16:26;;;;;;;22.80;12.37;;;5.70;1.00;;;;;;5095558;28;20446;-67
2023/04/08 04:18:52;;;;;;;16.60;10.27;;;5.70;1.00;;;;;;5095411;28;20215;-66
2023/04/08 04:21:18;;;;;;;13.70;10.93;;;5.70;1.00;;;;;;5093303;28;20191;-66
2023/04/08 04:23:44;;;;;;;19.20;12.80;;;5.60;1.00;;;;;;5095445;28;20886;-66
2023/04/08 04:26:11;;;;;;;18.23;12.00;;;5.60;1.00;;;;;;5095254;28;20461;-66
2023/04/08 04:28:37;;;;;;;16.30;13.40;;;5.60;1.00;;;;;;5076432;28;20442;-67
2023/04/08 04:31:04;;;;;;;18.57;11.97;;;5.60;1.00;;;;;;5094605;28;20489;-66
2023/04/08 04:33:30;;;;;;;16.83;11.40;;;5.60;1.00;;;;;;5095061;28;20474;-66
2023/04/08 04:35:56;;;;;;;19.30;11.90;;;5.60;1.00;;;;;;5076857;28;20447;-66
2023/04/08 04:38:22;;;;;;;14.10;9.80;;;5.60;1.00;;;;;;5095098;28;20450;-66
2023/04/08 04:40:47;;;;;;;12.93;9.30;;;5.60;1.00;;;;;;5094319;28;20176;-67
2023/04/08 04:43:13;;;;;;;24.20;14.00;;;5.60;1.00;;;;;;5094950;28;20212;-67
2023/04/08 04:45:39;;;;;;;22.60;11.60;;;5.60;1.00;;;;;;5094812;28;20538;-67
2023/04/08 04:48:05;;;;;;;22.27;14.97;;;5.60;1.00;;;;;;5094416;28;20201;-67
2023/04/08 04:50:30;;;;;;;21.63;14.10;;;5.50;1.00;;;;;;5094083;28;20926;-67
2023/04/08 04:52:56;;;;;;;21.87;13.87;;;5.50;1.00;;;;;;5094979;28;20246;-69
2023/04/08 04:55:22;;;;;;;20.50;14.70;;;5.60;1.00;;;;;;5094738;28;20241;-67
2023/04/08 04:57:48;;;;;;;24.80;15.13;;;5.60;1.00;;;;;;5094801;28;20632;-66
2023/04/08 05:00:15;;;;;;;24.57;14.63;;;5.60;1.00;;;;;;5075772;28;20259;-68
2023/04/08 05:02:40;;;;;;;23.73;13.43;;;5.70;1.00;;;;;;5094351;28;20447;-69
2023/04/08 05:05:06;;;;;;;27.47;14.90;;;5.60;1.00;;;;;;5076073;28;20935;-66
2023/04/08 05:07:36;;;;;;;21.27;13.67;;;5.60;1.00;;;;;;5094231;28;20173;-69
2023/04/08 05:10:02;;;;;;;20.80;13.77;;;5.70;1.00;;;;;;5094134;28;20537;-69
2023/04/08 05:12:28;;;;;;;21.00;12.10;;;5.70;1.00;;;;;;5094003;28;20421;-67
2023/04/08 05:14:54;;;;;;;19.40;12.03;;;5.60;1.00;;;;;;5094324;28;20399;-67
2023/04/08 05:17:19;;;;;;;20.07;15.30;;;5.60;1.00;;;;;;5094350;28;20199;-67
2023/04/08 05:19:45;;;;;;;25.87;14.33;;;5.60;1.00;;;;;;5094328;28;20656;-69
2023/04/08 05:22:11;;;;;;;21.70;13.40;;;5.60;1.00;;;;;;5093481;28;20191;-67
2023/04/08 05:24:36;;;;;;;19.00;13.17;;;5.60;1.00;;;;;;5093987;28;20244;-66
2023/04/08 05:27:02;;;;;;;19.30;11.70;;;5.60;1.00;;;;;;5093567;28;20188;-67
2023/04/08 05:29:28;;;;;;;20.77;12.57;;;5.50;1.00;;;;;;5093928;28;20168;-70
2023/04/08 05:31:55;;;;;;;21.23;12.70;;;5.60;1.00;;;;;;5092908;28;20184;-66
2023/04/08 05:34:21;;;;;;;30.90;14.17;;;5.60;1.00;;;;;;5094000;28;20161;-68
2023/04/08 05:36:51;;;;;;;17.23;10.80;;;5.60;1.00;;;;;;5093793;28;20752;-66
2023/04/08 05:39:18;;;;;;;21.77;12.77;;;5.60;1.00;;;;;;5093932;28;20448;-67
2023/04/08 05:41:44;;;;;;;14.20;11.53;;;5.60;1.00;;;;;;5093183;28;20441;-66
2023/04/08 05:44:10;;;;;;;18.07;12.67;;;5.60;1.00;;;;;;5093724;28;20409;-66
2023/04/08 05:46:37;;;;;;;13.57;10.60;;;5.60;1.00;;;;;;5093165;28;20410;-69
2023/04/08 05:49:02;;;;;;;13.23;9.63;;;5.60;1.00;;;;;;5093761;28;20406;-67
2023/04/08 05:51:28;;;;;;;15.77;10.63;;;5.60;1.00;;;;;;5074897;28;20858;-66
2023/04/08 05:53:54;;;;;;;13.60;10.20;;;5.50;1.00;;;;;;5093681;28;20409;-66
2023/04/08 05:56:19;;;;;;;16.03;11.00;;;5.50;1.00;;;;;;5093608;28;20195;-66
2023/04/08 05:58:46;;;;;;;12.30;10.67;;;5.40;1.00;;;;;;5093371;28;20176;-66
2023/04/08 06:01:12;;;;;;;14.17;10.87;;;5.40;1.00;;;;;;5092727;28;20169;-67
2023/04/08 06:03:37;;;;;;;20.07;11.70;;;5.30;1.00;;;;;;5093437;28;20439;-66
2023/04/08 06:06:03;;;;;;;19.57;13.10;;;5.30;1.00;;;;;;5092888;28;20432;-66
2023/04/08 06:08:29;;;;;;;22.33;12.10;;;5.30;1.00;;;;;;5093630;28;20408;-67
2023/04/08 06:10:55;;;;;;;17.40;12.20;;;5.30;1.00;;;;;;5074492;28;20211;-66
2023/04/08 06:13:20;;;;;;;23.43;13.30;;;5.30;1.00;;;;;;5093271;28;20195;-67
2023/04/08 06:15:48;;;;;;;18.73;11.50;;;5.30;1.00;;;;;;5093279;28;20634;-67
2023/04/08 06:18:16;;;;;;;23.90;13.00;;;5.30;1.00;;;;;;5093289;28;20457;-66
2023/04/08 06:20:41;;;;;;;15.20;10.57;;;5.30;1.00;;;;;;5092311;28;20813;-67
2023/04/08 06:23:07;;;;;;;14.60;10.90;;;5.40;1.00;;;;;;5093156;28;20513;-67
2023/04/08 06:25:33;;;;;;;14.27;11.20;;;5.40;1.00;;;;;;5092686;28;20179;-68
2023/04/08 06:27:58;;;;;;;15.07;9.60;;;5.40;1.00;;;;;;5075089;28;20228;-66
2023/04/08 06:30:24;;;;;;;15.87;10.53;;;5.40;1.00;;;;;;5092539;28;20198;-66
2023/04/08 06:32:50;;;;;;;12.17;10.57;;;5.40;1.00;;;;;;5092886;28;20668;-66
2023/04/08 06:35:15;;;;;;;15.30;10.27;;;5.40;1.00;;;;;;5092915;28;20527;-67
2023/04/08 06:37:41;;;;;;;15.90;10.50;;;5.40;1.00;;;;;;5081203;28;20177;-67
2023/04/08 06:40:07;;;;;;;14.07;11.00;;;5.40;1.00;;;;;;5086632;28;20546;-66
2023/04/08 06:42:33;;;;;;;19.33;11.63;;;5.40;1.00;;;;;;5072559;28;20198;-67
2023/04/08 06:44:59;;;;;;;11.73;8.80;;;5.50;1.00;;;;;;5074429;28;20410;-66
2023/04/08 06:47:25;;;;;;;16.27;11.53;;;5.50;1.00;;;;;;5076808;28;20200;-66
2023/04/08 06:49:50;;;;;;;13.50;11.20;;;5.40;1.00;;;;;;5076922;28;20448;-68
2023/04/08 06:52:16;;;;;;;16.00;12.20;;;5.50;1.00;;;;;;5076114;28;20193;-69
2023/04/08 06:54:42;;;;;;;14.67;10.00;;;5.50;1.00;;;;;;5058888;28;20531;-69
2023/04/08 06:57:08;;;;;;;18.10;12.33;;;5.60;1.00;;;;;;5076766;28;20386;-68
2023/04/08 06:59:34;;;;;;;18.57;13.10;;;5.60;1.00;;;;;;5076700;28;20631;-68
2023/04/08 07:01:59;;;;;;;14.20;11.00;;;5.70;1.00;;;;;;5075654;28;20204;-68
2023/04/08 07:04:25;;;;;;;12.67;10.60;;;5.70;1.00;;;;;;5083010;28;20393;-68
2023/04/08 07:06:51;;;;;;;17.37;11.90;;;5.80;1.00;;;;;;5097048;28;20164;-66
2023/04/08 07:09:17;;;;;;;21.53;14.17;;;5.80;1.00;;;;;;5095774;28;20626;-67
2023/04/08 07:11:43;;;;;;;21.80;13.07;;;5.60;1.00;;;;;;5095883;28;20208;-69
2023/04/08 07:14:09;;;;;;;17.40;11.80;;;5.70;1.00;;;;;;5096644;28;20525;-68
2023/04/08 07:16:34;;;;;;;16.47;12.03;;;5.80;1.00;;;;;;5096397;28;20534;-68
2023/04/08 07:19:00;;;;;;;15.00;11.23;;;5.90;1.00;;;;;;5092294;28;20418;-68
2023/04/08 07:21:26;;;;;;;18.10;12.00;;;6.00;1.00;;;;;;5075453;28;20575;-68
2023/04/08 07:23:52;;;;;;;15.40;11.97;;;6.00;1.00;;;;;;5075344;28;20470;-68
2023/04/08 07:26:18;;;;;;;21.87;13.93;;;6.00;1.00;;;;;;5076369;28;20400;-68
2023/04/08 07:28:44;;;;;;;15.73;10.83;;;6.10;1.00;;;;;;5076183;28;20649;-68
2023/04/08 07:31:14;;;;;;;14.40;11.30;;;6.10;1.00;;;;;;5075401;28;20194;-68
2023/04/08 07:33:40;;;;;;;20.13;12.10;;;6.20;1.00;;;;;;5075951;28;20228;-68
2023/04/08 07:36:07;;;;;;;16.13;11.70;;;6.10;1.00;;;;;;5075717;28;20900;-69
2023/04/08 07:38:33;;;;;;;15.87;10.80;;;6.20;1.00;;;;;;5058179;28;20496;-68
2023/04/08 07:40:59;;;;;;;13.23;9.37;;;6.20;1.00;;;;;;5075362;28;20447;-68
2023/04/08 07:43:25;;;;;;;16.40;10.37;;;6.30;1.00;;;;;;5075682;28;20524;-68
2023/04/08 07:45:51;;;;;;;13.20;9.17;;;6.30;1.00;;;;;;5075726;28;20506;-68
2023/04/08 07:48:17;;;;;;;11.57;9.97;;;6.20;1.00;;;;;;5075870;28;20463;-68
2023/04/08 07:50:44;;;;;;;12.50;8.97;;;6.20;1.00;;;;;;5075056;28;20208;-68
2023/04/08 07:53:10;;;;;;;12.90;10.30;;;6.20;1.00;;;;;;5075428;28;20182;-68
2023/04/08 07:55:35;;;;;;;12.67;9.87;;;6.30;1.00;;;;;;5057298;28;20820;-68
2023/04/08 07:58:01;;;;;;;12.50;9.17;;;6.20;1.00;;;;;;5075575;28;20424;-66
2023/04/08 08:00:29;;;;;;;16.90;11.80;;;6.10;1.00;;;;;;5074798;28;20235;-66
2023/04/08 08:02:55;;;;;;;16.67;10.43;;;6.00;1.00;;;;;;5075534;28;20202;-67
2023/04/08 08:05:21;;;;;;;15.10;11.20;;;6.00;1.00;;;;;;5075456;28;20431;-68
2023/04/08 08:07:46;;;;;;;17.60;10.63;;;6.00;1.00;;;;;;5075329;28;20889;-68
2023/04/08 08:10:12;;;;;;;16.97;9.97;;;6.00;1.00;;;;;;5074544;28;20767;-68
2023/04/08 08:12:38;;;;;;;14.70;10.67;;;6.00;1.00;;;;;;5075081;28;20186;-68
2023/04/08 08:15:04;;;;;;;12.60;9.07;;;6.10;1.00;;;;;;5075263;28;20681;-68
2023/04/08 08:17:32;;;;;;;10.30;7.43;;;6.10;1.00;;;;;;5075338;28;20162;-68
2023/04/08 08:19:59;;;;;;;12.77;11.00;;;6.10;1.00;;;;;;5074896;28;20739;-68
2023/04/08 08:22:25;;;;;;;16.03;10.10;;;6.10;1.00;;;;;;5074647;28;20916;-68
2023/04/08 08:24:55;;;;;;;11.10;9.77;;;6.20;1.00;;;;;;5075222;28;20405;-69
2023/04/08 08:27:21;;;;;;;19.60;14.20;;;6.30;1.00;;;;;;5074952;28;20166;-68
2023/04/08 08:29:47;;;;;;;17.27;11.50;;;6.30;1.00;;;;;;5074549;28;20803;-69
2023/04/08 08:32:12;;;;;;;14.67;9.70;;;6.40;1.00;;;;;;5074416;28;20420;-69
2023/04/08 08:34:38;;;;;;;13.57;11.00;;;6.40;1.00;;;;;;5075015;28;20531;-69
2023/04/08 08:37:04;;;;;;;14.00;9.47;;;6.50;1.00;;;;;;5074930;28;20174;-68
2023/04/08 08:39:29;;;;;;;13.50;11.10;;;6.50;1.00;;;;;;5075014;28;20162;-69
2023/04/08 08:41:55;;;;;;;12.40;10.73;;;6.50;1.00;;;;;;5074031;28;20815;-69
2023/04/08 08:44:22;;;;;;;15.17;10.50;;;6.50;1.00;;;;;;5074801;28;20269;-69
2023/04/08 08:46:48;;;;;;;14.67;12.03;;;6.60;1.00;;;;;;5074627;28;20223;-69
2023/04/08 08:49:14;;;;;;;18.13;11.10;;;6.60;1.00;;;;;;5074249;28;20454;-69
2023/04/08 08:51:41;;;;;;;12.17;10.50;;;6.60;1.00;;;;;;5073890;28;20459;-69
2023/04/08 08:54:07;;;;;;;15.83;10.50;;;6.60;1.00;;;;;;5074538;28;20420;-69
2023/04/08 08:56:33;;;;;;;12.97;10.23;;;6.60;1.00;;;;;;5074433;28;20401;-69
2023/04/08 08:58:59;;;;;;;16.67;10.20;;;6.60;1.00;;;;;;5074567;28;20407;-70
2023/04/08 09:01:37;;;;;;;12.83;10.30;;;6.60;1.00;;;;;;5055696;28;20209;-68
2023/04/08 09:04:15;;;;;;;16.43;9.67;;;6.50;1.00;;;;;;5074414;28;20403;-69
2023/04/08 09:06:42;;;;;;;12.60;10.63;;;6.60;1.00;;;;;;5073027;28;20404;-69
2023/04/08 09:09:10;;;;;;;12.77;10.40;;;6.60;1.00;;;;;;5074225;28;20404;-69
2023/04/08 09:11:41;;;;;;;14.33;10.57;;;6.60;1.00;;;;;;5073528;28;20456;-69
2023/04/08 09:14:20;;;;;;;16.17;9.70;;;6.60;1.00;;;;;;5074175;28;20788;-69
2023/04/08 09:16:45;;;;;;;14.63;10.03;;;6.70;1.00;;;;;;5074081;28;20393;-69
2023/04/08 09:19:12;;;;;;;16.57;12.43;;;6.80;1.00;;;;;;5074033;28;20396;-69
2023/04/08 09:21:40;;;;;;;16.63;11.20;;;6.70;1.00;;;;;;5073174;28;20524;-70
2023/04/08 09:24:06;;;;;;;14.50;10.13;;;6.70;1.00;;;;;;5073901;28;20396;-69
2023/04/08 09:26:33;;;;;;;16.03;10.63;;;6.70;1.00;;;;;;5073857;28;20450;-69
2023/04/08 09:29:01;;;;;;;17.60;10.00;;;6.80;1.00;;;;;;5056081;28;20835;-69
2023/04/08 09:31:37;;;;;;;16.27;10.20;;;6.80;1.00;;;;;;5072989;28;20448;-69
2023/04/08 09:34:18;;;;;;;10.83;9.80;;;6.90;1.00;;;;;;5073720;28;20429;-69
2023/04/08 09:36:44;;;;;;;14.00;9.43;;;6.90;1.00;;;;;;5073550;28;20396;-69
2023/04/08 09:39:10;;;;;;;13.53;9.00;;;7.00;1.00;;;;;;5073408;28;20393;-69
2023/04/08 09:41:38;;;;;;;20.10;10.40;;;7.10;1.00;;;;;;5072899;28;20920;-70
2023/04/08 09:44:06;;;;;;;12.50;9.63;;;7.20;1.00;;;;;;5073497;28;20420;-69
2023/04/08 09:46:51;;;;;;;15.63;9.20;;;7.20;1.00;;;;;;5073423;28;20432;-69
2023/04/08 09:49:30;;;;;;;10.37;9.03;;;7.10;1.00;;;;;;5073492;28;20375;-69
2023/04/08 09:52:01;;;;;;;20.83;9.67;;;7.20;1.00;;;;;;5072621;28;20513;-69
2023/04/08 09:54:42;;;;;;;15.10;9.07;;;7.20;1.00;;;;;;5073260;28;20403;-69
2023/04/08 09:57:12;;;;;;;16.20;10.50;;;7.30;99.90;;;;;;5073277;28;20408;-69
2023/04/08 09:59:52;;;;;;;11.80;9.90;;;7.30;99.90;;;;;;5073478;28;20408;-69
2023/04/08 10:02:25;;;;;;;14.37;8.53;;;7.40;99.90;;;;;;5072776;28;20786;-69
2023/04/08 10:04:54;;;;;;;12.77;10.00;;;7.40;99.90;;;;;;5073264;28;20423;-70
2023/04/08 10:07:20;;;;;;;10.50;8.53;;;7.40;99.90;;;;;;5073261;28;20404;-69
2023/04/08 10:09:46;;;;;;;14.47;10.17;;;7.40;99.90;;;;;;5073189;28;20400;-70
2023/04/08 10:12:12;;;;;;;12.87;9.70;;;7.40;99.90;;;;;;5072663;28;20236;-68
2023/04/08 10:14:38;;;;;;;12.10;9.20;;;7.40;99.90;;;;;;5072854;28;20411;-69
2023/04/08 10:17:26;;;;;;;16.97;11.07;;;7.50;99.90;;;;;;5073100;28;20458;-69
2023/04/08 10:19:52;;;;;;;14.10;10.70;;;7.60;99.90;;;;;;5072895;28;20189;-69
2023/04/08 10:22:33;;;;;;;16.23;10.70;;;7.60;99.90;;;;;;5072715;28;20440;-69
2023/04/08 10:25:17;;;;;;;14.43;9.57;;;7.50;99.90;;;;;;5072988;28;20396;-69
2023/04/08 10:27:44;;;;;;;10.60;8.60;;;7.40;99.90;;;;;;5073084;28;20407;-70
2023/04/08 10:30:30;;;;;;;13.03;9.40;;;7.40;99.90;;;;;;5072265;28;20444;-69
2023/04/08 10:33:00;;;;;;;15.83;10.67;;;7.20;99.90;;;;;;5072739;28;20412;-69
2023/04/08 10:35:36;;;;;;;17.50;11.27;;;7.20;99.90;;;;;;5072626;28;20401;-70
2023/04/08 10:38:02;;;;;;;14.90;10.83;;;7.30;99.90;;;;;;5072903;28;20392;-70
2023/04/08 10:40:28;;;;;;;15.73;12.10;;;7.40;99.90;;;;;;5072086;28;20396;-69
2023/04/08 10:42:55;;;;;;;15.90;10.50;;;7.60;99.90;;;;;;5072854;28;20555;-70
2023/04/08 10:45:21;;;;;;;18.83;10.60;;;7.60;99.90;;;;;;5072768;28;20397;-69
2023/04/08 10:47:47;;;;;;;18.33;10.83;;;7.60;99.90;;;;;;5072861;28;20393;-69
2023/04/08 10:50:17;;;;;;;12.23;10.00;;;7.60;99.90;;;;;;5072239;28;20186;-69
2023/04/08 10:52:47;;;;;;;15.10;10.40;;;7.60;99.90;;;;;;5072692;28;20412;-69
2023/04/08 10:55:12;;;;;;;18.77;11.50;;;7.50;99.90;;;;;;5072858;28;20376;-69
2023/04/08 10:57:40;;;;;;;20.13;11.67;;;7.40;99.90;;;;;;5072712;28;20392;-69
2023/04/08 11:00:09;;;;;;;18.90;11.60;;;7.40;99.90;;;;;;5072099;28;20627;-69
2023/04/08 11:02:37;;;;;;;14.37;11.37;;;7.50;99.90;;;;;;5072494;28;20957;-69
2023/04/08 11:05:03;;;;;;;16.33;11.13;;;7.50;99.90;;;;;;5072572;28;20401;-69
2023/04/08 11:07:29;;;;;;;18.00;12.53;;;7.50;99.90;;;;;;5072622;28;20409;-69
2023/04/08 11:09:55;;;;;;;17.90;11.17;;;7.40;99.90;;;;;;5072248;28;20753;-69
2023/04/08 11:12:22;;;;;;;14.40;10.17;;;7.50;99.90;;;;;;5071861;28;20178;-70
2023/04/08 11:14:50;;;;;;;12.60;11.03;;;7.50;99.90;;;;;;5072615;28;20408;-72
2023/04/08 11:17:16;;;;;;;18.20;11.20;;;7.40;99.90;;;;;;5072392;28;20892;-73
2023/04/08 11:19:42;;;;;;;16.33;11.40;;;7.40;99.90;;;;;;5072604;28;20754;-70
2023/04/08 11:22:11;;;;;;;14.03;10.87;;;7.50;99.90;;;;;;5071565;28;20413;-73
2023/04/08 11:24:36;;;;;;;15.80;12.47;;;7.60;99.90;;;;;;5072449;28;20150;-73
2023/04/08 11:27:06;;;;;;;14.93;10.53;;;7.80;99.90;;;;;;5072456;28;20773;-69
2023/04/08 11:29:32;;;;;;;16.30;11.57;;;7.90;99.90;;;;;;5072008;28;20416;-69
2023/04/08 11:31:59;;;;;;;17.13;11.57;;;8.00;99.90;;;;;;5075138;28;20461;-69
2023/04/08 11:34:24;;;;;;;11.97;9.60;;;8.10;99.90;;;;;;5074824;28;20811;-69
2023/04/08 11:36:51;;;;;;;20.00;11.27;;;8.20;99.90;;;;;;5076080;28;20396;-73
2023/04/08 11:39:17;;;;;;;13.90;9.97;;;8.20;99.90;;;;;;5075929;28;20167;-73
2023/04/08 11:41:43;;;;;;;13.47;10.20;;;8.20;99.90;;;;;;5075110;28;20923;-70
2023/04/08 11:44:09;;;;;;;15.73;9.93;;;8.20;99.90;;;;;;5074904;28;20429;-69
2023/04/08 11:46:35;;;;;;;14.03;10.17;;;8.30;99.90;;;;;;5075553;28;20251;-69
2023/04/08 11:49:03;;;;;;;13.57;10.50;;;8.40;99.90;;;;;;5075841;28;20193;-69
2023/04/08 11:51:29;;;;;;;18.60;10.70;;;8.50;99.90;;;;;;5074837;28;20415;-69
2023/04/08 11:53:55;;;;;;;17.17;10.53;;;8.50;99.90;;;;;;5075680;28;20852;-69
2023/04/08 11:56:22;;;;;;;12.30;9.70;;;8.80;99.90;;;;;;5075773;28;20162;-69
2023/04/08 11:58:49;;;;;;;11.30;10.20;;;8.90;99.90;;;;;;5075652;28;20171;-69
2023/04/08 12:01:15;;;;;;;13.23;10.53;;;8.80;99.90;;;;;;5074837;28;20880;-70
2023/04/08 12:03:57;;;;;;;13.73;8.97;;;8.70;99.90;;;;;;5075112;28;20422;-70
2023/04/08 12:06:23;;;;;;;12.10;10.77;;;8.80;99.90;;;;;;5075593;28;20423;-69
2023/04/08 12:08:49;;;;;;;13.63;9.93;;;8.90;99.90;;;;;;5075436;28;20406;-69
2023/04/08 12:11:15;;;;;;;17.63;11.50;;;9.20;99.90;;;;;;5074707;28;20433;-70
2023/04/08 12:13:41;;;;;;;14.37;10.90;;;9.50;99.90;;;;;;5075193;28;20392;-70
2023/04/08 12:16:07;;;;;;;12.63;9.90;;;9.70;99.90;;;;;;5075329;28;20173;-70
2023/04/08 12:18:33;;;;;;;12.20;9.93;;;9.70;99.90;;;;;;5075128;28;20379;-69
2023/04/08 12:20:58;;;;;;;20.57;9.80;;;9.40;99.90;;;;;;5074757;28;20252;-69
2023/04/08 12:23:24;;;;;;;14.93;10.53;;;9.10;99.90;;;;;;5074895;28;20197;-69
2023/04/08 12:25:50;;;;;;;17.03;10.50;;;9.10;99.90;;;;;;5075046;28;20166;-69
2023/04/08 12:28:16;;;;;;;13.80;10.80;;;9.10;99.90;;;;;;5075288;28;20372;-69
2023/04/08 12:30:42;;;;;;;14.33;10.67;;;9.20;99.90;;;;;;5074312;28;20240;-69
2023/04/08 12:33:07;;;;;;;12.13;10.77;;;9.40;99.90;;;;;;5074880;28;20649;-69
2023/04/08 12:35:33;;;;;;;16.60;12.10;;;9.50;99.90;;;;;;5075023;28;20173;-70
2023/04/08 12:37:59;;;;;;;13.13;10.10;;;9.60;99.90;;;;;;5074831;28;20169;-70
2023/04/08 12:40:24;;;;;;;16.37;10.80;;;9.60;99.90;;;;;;5074002;28;20634;-69
2023/04/08 12:42:50;;;;;;;15.13;11.23;;;9.60;99.90;;;;;;5073640;28;20186;-70